createdAt,value
2022-10-16T00:00:18.274Z,19.10
2022-10-16T00:05:15.310Z,19.00
2022-10-16T00:07:43.310Z,19.00
2022-10-16T00:10:11.405Z,19.00
2022-10-16T00:12:39.493Z,19.00
2022-10-16T00:15:10.120Z,19.00
2022-10-16T00:17:38.148Z,19.00
2022-10-16T00:20:07.354Z,19.00
2022-10-16T00:22:35.417Z,19.00
2022-10-16T00:25:03.435Z,19.00
2022-10-16T00:27:31.480Z,19.00
2022-10-16T00:32:33.902Z,19.00
2022-10-16T00:35:02.106Z,19.00
2022-10-16T00:37:30.087Z,19.00
2022-10-16T00:39:58.156Z,19.00
2022-10-16T00:42:27.297Z,19.00
2022-10-16T00:44:57.704Z,19.00
2022-10-16T00:47:28.605Z,19.00
2022-10-16T00:50:01.970Z,19.00
2022-10-16T00:52:29.965Z,19.00
2022-10-16T00:54:57.981Z,19.00
2022-10-16T00:57:26.036Z,19.00
2022-10-16T00:59:54.105Z,19.00
2022-10-16T01:02:22.191Z,19.00
2022-10-16T01:04:51.091Z,19.00
2022-10-16T01:07:27.095Z,19.00
2022-10-16T01:10:00.692Z,19.00
2022-10-16T01:12:37.608Z,19.00
2022-10-16T01:15:10.060Z,19.00
2022-10-16T01:17:41.087Z,19.00
2022-10-16T01:20:12.637Z,19.00
2022-10-16T01:22:46.554Z,19.00
2022-10-16T01:25:18.957Z,19.00
2022-10-16T01:27:48.373Z,19.00
2022-10-16T01:30:19.003Z,19.00
2022-10-16T01:32:48.845Z,19.00
2022-10-16T01:35:19.821Z,19.00
2022-10-16T01:37:50.334Z,19.00
2022-10-16T01:40:19.325Z,19.00
2022-10-16T01:42:50.171Z,19.00
2022-10-16T01:45:19.126Z,19.00
2022-10-16T01:47:47.539Z,18.90
2022-10-16T01:50:15.912Z,19.00
2022-10-16T01:52:45.669Z,19.00
2022-10-16T01:55:14.747Z,19.00
2022-10-16T01:57:44.997Z,19.00
2022-10-16T02:00:15.225Z,18.90
2022-10-16T02:02:43.581Z,19.00
2022-10-16T02:05:14.712Z,18.90
2022-10-16T02:07:43.202Z,18.90
2022-10-16T02:10:11.551Z,18.90
2022-10-16T02:12:40.977Z,18.90
2022-10-16T02:15:09.570Z,19.00
2022-10-16T02:17:38.996Z,19.00
2022-10-16T02:20:07.460Z,18.90
2022-10-16T02:22:38.512Z,18.90
2022-10-16T02:25:08.541Z,18.90
2022-10-16T02:27:38.637Z,18.90
2022-10-16T02:30:09.628Z,18.90
2022-10-16T02:32:40.656Z,18.90
2022-10-16T02:35:09.349Z,18.90
2022-10-16T02:37:37.363Z,18.90
2022-10-16T02:40:06.063Z,19.00
2022-10-16T02:42:35.738Z,19.00
2022-10-16T02:45:03.842Z,19.00
2022-10-16T02:47:31.847Z,19.00
2022-10-16T02:50:01.242Z,19.00
2022-10-16T02:52:29.519Z,18.90
2022-10-16T02:54:57.743Z,18.90
2022-10-16T02:57:26.083Z,19.00
2022-10-16T02:59:54.270Z,18.90
2022-10-16T03:02:22.354Z,18.90
2022-10-16T03:04:50.410Z,19.00
2022-10-16T03:07:19.814Z,18.90
2022-10-16T03:09:47.818Z,19.00
2022-10-16T03:12:15.776Z,18.90
2022-10-16T03:14:43.775Z,18.90
2022-10-16T03:17:11.793Z,18.90
2022-10-16T03:19:39.811Z,18.90
2022-10-16T03:22:07.780Z,18.90
2022-10-16T03:24:37.133Z,18.90
2022-10-16T03:27:05.166Z,18.90
2022-10-16T03:29:33.767Z,18.90
2022-10-16T03:32:01.827Z,18.90
2022-10-16T03:34:29.939Z,18.90
2022-10-16T03:36:58.216Z,18.90
2022-10-16T03:39:26.323Z,18.90
2022-10-16T03:41:55.703Z,18.90
2022-10-16T03:44:23.801Z,18.90
2022-10-16T03:46:51.837Z,18.90
2022-10-16T03:49:19.910Z,19.00
2022-10-16T03:51:47.906Z,18.90
2022-10-16T03:54:16.018Z,18.90
2022-10-16T03:56:44.026Z,18.90
2022-10-16T03:59:13.368Z,18.90
2022-10-16T04:01:41.481Z,18.90
2022-10-16T04:04:09.448Z,18.90
2022-10-16T04:06:37.447Z,18.90
2022-10-16T04:09:05.453Z,18.90
2022-10-16T04:11:33.530Z,18.90
2022-10-16T04:14:01.968Z,18.90
2022-10-16T04:16:31.327Z,18.90
2022-10-16T04:18:59.399Z,18.90
2022-10-16T04:21:27.407Z,18.90
2022-10-16T04:23:55.407Z,18.90
2022-10-16T04:26:23.420Z,18.90
2022-10-16T04:28:51.448Z,18.90
2022-10-16T04:31:19.550Z,18.90
2022-10-16T04:33:48.898Z,18.90
2022-10-16T04:36:16.928Z,18.90
2022-10-16T04:38:44.920Z,18.90
2022-10-16T04:41:13.024Z,18.90
2022-10-16T04:43:41.394Z,18.90
2022-10-16T04:46:11.074Z,18.90
2022-10-16T04:48:39.054Z,18.90
2022-10-16T04:51:08.543Z,18.90
2022-10-16T04:53:36.633Z,18.90
2022-10-16T04:56:04.696Z,18.90
2022-10-16T04:58:32.679Z,18.90
2022-10-16T05:01:00.691Z,18.90
2022-10-16T05:03:28.678Z,18.90
2022-10-16T05:05:57.598Z,18.90
2022-10-16T05:08:26.996Z,18.90
2022-10-16T05:10:55.040Z,18.90
2022-10-16T05:13:24.159Z,18.90
2022-10-16T05:15:52.205Z,18.90
2022-10-16T05:18:20.263Z,18.90
2022-10-16T05:20:48.281Z,18.90
2022-10-16T05:23:16.296Z,18.90
2022-10-16T05:25:45.650Z,18.90
2022-10-16T05:28:13.699Z,18.90
2022-10-16T05:30:41.703Z,18.90
2022-10-16T05:33:09.696Z,18.90
2022-10-16T05:35:37.674Z,18.90
2022-10-16T05:38:05.692Z,18.90
2022-10-16T05:40:33.732Z,18.90
2022-10-16T05:43:03.093Z,18.90
2022-10-16T05:45:31.113Z,18.90
2022-10-16T05:47:59.174Z,18.90
2022-10-16T05:50:27.171Z,18.90
2022-10-16T05:52:55.192Z,18.80
2022-10-16T05:55:23.359Z,18.90
2022-10-16T05:57:51.557Z,18.90
2022-10-16T06:00:21.063Z,18.90
2022-10-16T06:02:49.085Z,18.80
2022-10-16T06:05:17.156Z,18.90
2022-10-16T06:07:45.170Z,18.90
2022-10-16T06:10:13.173Z,18.90
2022-10-16T06:12:41.157Z,18.80
2022-10-16T06:15:09.986Z,18.80
2022-10-16T06:17:39.479Z,18.90
2022-10-16T06:20:08.184Z,18.80
2022-10-16T06:22:36.178Z,18.80
2022-10-16T06:25:04.369Z,18.80
2022-10-16T06:27:32.351Z,18.90
2022-10-16T06:30:00.444Z,18.90
2022-10-16T06:32:29.188Z,18.80
2022-10-16T06:34:58.551Z,18.80
2022-10-16T06:37:27.093Z,18.80
2022-10-16T06:39:55.368Z,18.80
2022-10-16T06:42:23.657Z,18.80
2022-10-16T06:44:52.668Z,18.80
2022-10-16T06:47:20.654Z,18.80
2022-10-16T06:49:51.883Z,18.80
2022-10-16T06:52:23.981Z,18.80
2022-10-16T06:54:52.410Z,18.80
2022-10-16T06:57:20.388Z,18.80
2022-10-16T06:59:51.011Z,18.80
2022-10-16T07:02:21.339Z,18.80
2022-10-16T07:04:49.407Z,18.80
2022-10-16T07:07:17.419Z,18.80
2022-10-16T07:09:46.773Z,18.80
2022-10-16T07:12:14.765Z,18.80
2022-10-16T07:14:42.809Z,18.80
2022-10-16T07:17:10.914Z,18.80
2022-10-16T07:19:39.003Z,18.80
2022-10-16T07:22:07.517Z,18.80
2022-10-16T07:24:35.498Z,18.80
2022-10-16T07:27:05.027Z,18.80
2022-10-16T07:29:33.050Z,18.80
2022-10-16T07:32:01.075Z,18.80
2022-10-16T07:34:29.098Z,18.80
2022-10-16T07:36:57.064Z,18.80
2022-10-16T07:39:25.108Z,18.80
2022-10-16T07:41:53.182Z,18.80
2022-10-16T07:44:22.651Z,18.80
2022-10-16T07:46:50.699Z,18.80
2022-10-16T07:49:18.685Z,18.80
2022-10-16T07:51:46.679Z,18.80
2022-10-16T07:54:14.682Z,18.80
2022-10-16T07:56:43.944Z,18.90
2022-10-16T07:59:12.225Z,18.80
2022-10-16T08:01:43.098Z,18.80
2022-10-16T08:04:11.434Z,18.90
2022-10-16T08:06:40.272Z,18.80
2022-10-16T08:09:08.443Z,18.90
2022-10-16T08:11:36.520Z,18.80
2022-10-16T08:14:04.560Z,18.80
2022-10-16T08:16:32.885Z,18.90
2022-10-16T08:19:02.333Z,18.80
2022-10-16T08:21:30.331Z,18.90
2022-10-16T08:23:58.772Z,18.90
2022-10-16T08:26:27.829Z,18.90
2022-10-16T08:28:56.233Z,18.90
2022-10-16T08:31:24.307Z,18.90
2022-10-16T08:33:53.315Z,18.90
2022-10-16T08:36:22.825Z,18.90
2022-10-16T08:38:51.571Z,18.90
2022-10-16T08:41:28.692Z,18.90
2022-10-16T08:44:18.698Z,18.90
2022-10-16T08:46:50.572Z,18.90
2022-10-16T08:49:18.888Z,18.90
2022-10-16T08:51:50.459Z,18.90
2022-10-16T08:54:25.361Z,18.90
2022-10-16T08:56:53.369Z,18.90
2022-10-16T08:59:21.413Z,18.90
2022-10-16T09:01:51.635Z,19.00
2022-10-16T09:04:56.859Z,18.90
2022-10-16T09:07:29.028Z,18.90
2022-10-16T09:10:04.391Z,18.90
2022-10-16T09:12:36.025Z,19.00
2022-10-16T09:15:08.977Z,19.00
2022-10-16T09:17:45.325Z,19.00
2022-10-16T09:20:21.517Z,19.00
2022-10-16T09:22:50.850Z,19.00
2022-10-16T09:25:22.208Z,19.00
2022-10-16T09:27:51.229Z,19.10
2022-10-16T09:30:20.132Z,19.00
2022-10-16T09:32:50.180Z,19.00
2022-10-16T09:35:20.097Z,19.00
2022-10-16T09:37:53.006Z,19.00
2022-10-16T09:40:28.082Z,19.00
2022-10-16T09:43:00.068Z,19.00
2022-10-16T09:45:28.126Z,19.00
2022-10-16T09:47:57.823Z,19.00
2022-10-16T09:50:27.506Z,19.00
2022-10-16T09:53:12.843Z,19.10
2022-10-16T09:55:50.948Z,19.10
2022-10-16T09:58:19.034Z,19.10
2022-10-16T10:00:51.563Z,19.10
2022-10-16T10:03:32.434Z,19.10
2022-10-16T10:06:02.165Z,19.10
2022-10-16T10:08:31.920Z,19.10
2022-10-16T10:10:59.937Z,19.10
2022-10-16T10:13:28.082Z,19.10
2022-10-16T10:15:56.084Z,19.10
2022-10-16T10:18:25.139Z,19.10
2022-10-16T10:20:59.946Z,19.20
2022-10-16T10:23:28.847Z,19.20
2022-10-16T10:25:59.487Z,19.20
2022-10-16T10:28:43.973Z,19.10
2022-10-16T10:31:14.806Z,19.20
2022-10-16T10:33:45.530Z,19.20
2022-10-16T10:36:22.649Z,19.20
2022-10-16T10:38:52.583Z,19.20
2022-10-16T10:41:50.106Z,19.20
2022-10-16T10:44:21.258Z,19.20
2022-10-16T10:46:52.300Z,19.20
2022-10-16T10:49:35.238Z,19.20
2022-10-16T10:52:09.733Z,19.20
2022-10-16T10:54:40.146Z,19.20
2022-10-16T10:57:12.402Z,19.20
2022-10-16T10:59:48.918Z,19.20
2022-10-16T11:02:20.285Z,19.20
2022-10-16T11:05:08.999Z,19.20
2022-10-16T11:07:38.868Z,19.20
2022-10-16T11:10:10.411Z,19.20
2022-10-16T11:12:41.187Z,19.30
2022-10-16T11:15:13.709Z,19.20
2022-10-16T11:17:43.155Z,19.20
2022-10-16T11:20:15.702Z,19.30
2022-10-16T11:22:44.673Z,19.30
2022-10-16T11:25:16.126Z,19.30
2022-10-16T11:27:48.437Z,19.30
2022-10-16T11:30:18.503Z,19.30
2022-10-16T11:32:54.787Z,19.30
2022-10-16T11:35:26.665Z,19.30
2022-10-16T11:37:54.788Z,19.30
2022-10-16T11:40:25.818Z,19.30
2022-10-16T11:42:59.515Z,19.40
2022-10-16T11:45:31.191Z,19.40
2022-10-16T11:48:02.904Z,19.40
2022-10-16T11:50:33.209Z,19.40
2022-10-16T11:53:03.766Z,19.40
2022-10-16T11:55:33.247Z,19.50
2022-10-16T11:58:04.477Z,19.50
2022-10-16T12:00:35.293Z,19.50
2022-10-16T12:03:06.686Z,19.50
2022-10-16T12:05:38.033Z,19.60
2022-10-16T12:08:11.901Z,19.60
2022-10-16T12:10:40.963Z,19.60
2022-10-16T12:13:34.846Z,19.70
2022-10-16T12:16:22.406Z,19.70
2022-10-16T12:18:50.886Z,19.70
2022-10-16T12:21:20.141Z,19.70
2022-10-16T12:23:51.810Z,19.70
2022-10-16T12:26:26.592Z,19.80
2022-10-16T12:28:56.174Z,19.80
2022-10-16T12:31:25.266Z,19.80
2022-10-16T12:33:59.837Z,19.90
2022-10-16T12:36:31.573Z,19.90
2022-10-16T12:38:59.606Z,19.90
2022-10-16T12:41:29.036Z,20.00
2022-10-16T12:43:58.613Z,20.00
2022-10-16T12:46:37.220Z,20.00
2022-10-16T12:49:25.578Z,20.00
2022-10-16T12:51:53.675Z,20.00
2022-10-16T12:54:25.161Z,20.00
2022-10-16T12:57:00.172Z,20.00
2022-10-16T12:59:35.450Z,20.10
2022-10-16T13:02:30.195Z,20.10
2022-10-16T13:05:08.269Z,20.10
2022-10-16T13:07:48.900Z,20.10
2022-10-16T13:10:20.910Z,20.10
2022-10-16T13:13:33.547Z,20.20
2022-10-16T13:16:12.469Z,20.10
2022-10-16T13:18:44.320Z,20.20
2022-10-16T13:21:20.914Z,20.20
2022-10-16T13:23:52.552Z,20.20
2022-10-16T13:26:25.725Z,20.10
2022-10-16T13:28:53.821Z,20.20
2022-10-16T13:31:24.849Z,20.20
2022-10-16T13:33:55.639Z,20.10
2022-10-16T13:36:24.825Z,20.10
2022-10-16T13:39:12.223Z,20.10
2022-10-16T13:41:40.136Z,20.10
2022-10-16T13:44:13.978Z,20.10
2022-10-16T13:46:43.233Z,20.10
2022-10-16T13:49:14.788Z,20.10
2022-10-16T13:51:42.656Z,20.10
2022-10-16T13:54:11.880Z,20.10
2022-10-16T13:56:40.805Z,20.10
2022-10-16T13:59:09.379Z,20.10
2022-10-16T14:01:41.290Z,20.10
2022-10-16T14:04:11.360Z,20.10
2022-10-16T14:06:42.109Z,20.00
2022-10-16T14:09:14.081Z,20.10
2022-10-16T14:11:46.907Z,20.10
2022-10-16T14:14:14.847Z,20.00
2022-10-16T14:16:43.198Z,20.10
2022-10-16T14:19:20.098Z,20.10
2022-10-16T14:21:48.048Z,20.00
2022-10-16T14:24:16.247Z,20.00
2022-10-16T14:26:49.692Z,20.00
2022-10-16T14:29:20.596Z,20.00
2022-10-16T14:31:56.663Z,20.00
2022-10-16T14:34:28.421Z,20.00
2022-10-16T14:36:56.816Z,20.00
2022-10-16T14:39:25.043Z,20.00
2022-10-16T14:41:53.521Z,20.00
2022-10-16T14:44:21.414Z,20.00
2022-10-16T14:46:49.335Z,20.00
2022-10-16T14:49:18.796Z,20.00
2022-10-16T14:51:48.151Z,20.00
2022-10-16T14:54:16.454Z,20.00
2022-10-16T14:56:48.144Z,20.00
2022-10-16T14:59:18.114Z,20.00
2022-10-16T15:01:46.085Z,20.00
2022-10-16T15:04:14.305Z,20.10
2022-10-16T15:06:42.187Z,20.00
2022-10-16T15:09:11.689Z,20.10
2022-10-16T15:11:39.551Z,20.00
2022-10-16T15:14:07.910Z,20.10
2022-10-16T15:16:35.789Z,20.00
2022-10-16T15:19:03.709Z,20.00
2022-10-16T15:21:32.212Z,20.00
2022-10-16T15:24:00.365Z,20.00
2022-10-16T15:26:30.176Z,20.10
2022-10-16T15:28:58.160Z,20.10
2022-10-16T15:31:26.222Z,20.00
2022-10-16T15:33:54.651Z,20.00
2022-10-16T15:36:29.106Z,20.00
2022-10-16T15:38:57.054Z,20.00
2022-10-16T15:41:25.001Z,20.00
2022-10-16T15:43:54.250Z,20.00
2022-10-16T15:46:22.803Z,20.00
2022-10-16T15:48:51.007Z,20.00
2022-10-16T15:51:19.309Z,20.00
2022-10-16T15:53:47.892Z,20.00
2022-10-16T15:56:16.229Z,20.00
2022-10-16T15:58:44.319Z,20.00
2022-10-16T16:01:13.697Z,20.00
2022-10-16T16:03:41.882Z,20.00
2022-10-16T16:06:10.400Z,20.00
2022-10-16T16:08:38.461Z,20.00
2022-10-16T16:11:07.443Z,20.00
2022-10-16T16:13:35.400Z,20.00
2022-10-16T16:16:03.254Z,20.00
2022-10-16T16:18:32.546Z,20.00
2022-10-16T16:21:00.396Z,20.00
2022-10-16T16:23:28.244Z,20.00
2022-10-16T16:26:05.633Z,19.90
2022-10-16T16:28:33.639Z,19.90
2022-10-16T16:31:01.749Z,20.00
2022-10-16T16:33:29.679Z,19.90
2022-10-16T16:36:02.428Z,19.90
2022-10-16T16:38:30.298Z,19.90
2022-10-16T16:40:58.289Z,19.90
2022-10-16T16:43:26.475Z,19.90
2022-10-16T16:45:54.759Z,19.90
2022-10-16T16:48:22.751Z,19.90
2022-10-16T16:50:50.661Z,19.90
2022-10-16T16:53:19.879Z,19.90
2022-10-16T16:55:47.768Z,19.90
2022-10-16T16:58:15.664Z,19.90
2022-10-16T17:00:56.512Z,19.90
2022-10-16T17:03:24.911Z,19.90
2022-10-16T17:05:59.235Z,19.90
2022-10-16T17:08:29.168Z,19.90
2022-10-16T17:10:57.680Z,19.90
2022-10-16T17:13:25.696Z,19.90
2022-10-16T17:15:54.063Z,19.90
2022-10-16T17:18:21.990Z,19.90
2022-10-16T17:20:49.891Z,19.90
2022-10-16T17:23:18.414Z,19.90
2022-10-16T17:25:47.949Z,19.90
2022-10-16T17:28:15.824Z,19.80
2022-10-16T17:30:43.793Z,19.90
2022-10-16T17:33:12.304Z,19.90
2022-10-16T17:35:40.417Z,19.90
2022-10-16T17:38:08.370Z,19.90
2022-10-16T17:40:36.498Z,19.90
2022-10-16T17:43:06.305Z,19.90
2022-10-16T17:45:37.275Z,19.90
2022-10-16T17:48:07.439Z,19.90
2022-10-16T17:50:35.337Z,19.90
2022-10-16T17:53:03.180Z,19.80
2022-10-16T17:55:31.069Z,19.80
2022-10-16T17:57:58.969Z,19.80
2022-10-16T18:00:28.184Z,19.90
2022-10-16T18:02:56.046Z,19.80
2022-10-16T18:05:23.923Z,19.80
2022-10-16T18:07:51.838Z,19.80
2022-10-16T18:10:21.103Z,19.80
2022-10-16T18:12:49.281Z,19.90
2022-10-16T18:15:17.224Z,19.90
2022-10-16T18:17:46.535Z,19.90
2022-10-16T18:20:14.479Z,19.90
2022-10-16T18:22:42.382Z,19.90
2022-10-16T18:25:10.575Z,19.80
2022-10-16T18:27:38.548Z,19.80
2022-10-16T18:30:07.597Z,19.80
2022-10-16T18:32:35.933Z,19.80
2022-10-16T18:35:05.505Z,19.80
2022-10-16T18:37:33.421Z,19.80
2022-10-16T18:40:01.289Z,19.80
2022-10-16T18:42:29.167Z,19.80
2022-10-16T18:44:56.995Z,19.80
2022-10-16T18:47:25.228Z,19.80
2022-10-16T18:49:53.416Z,19.80
2022-10-16T18:52:23.878Z,19.80
2022-10-16T18:54:51.794Z,19.80
2022-10-16T18:57:19.639Z,19.80
2022-10-16T18:59:47.599Z,19.80
2022-10-16T19:02:18.243Z,19.80
2022-10-16T19:04:46.511Z,19.80
2022-10-16T19:07:17.837Z,19.80
2022-10-16T19:09:48.255Z,19.70
2022-10-16T19:12:18.846Z,19.70
2022-10-16T19:14:48.954Z,19.70
2022-10-16T19:17:21.007Z,19.70
2022-10-16T19:19:48.986Z,19.70
2022-10-16T19:22:28.134Z,19.80
2022-10-16T19:24:57.937Z,19.70
2022-10-16T19:27:25.854Z,19.70
2022-10-16T19:29:53.868Z,19.70
2022-10-16T19:32:21.829Z,19.70
2022-10-16T19:34:51.285Z,19.70
2022-10-16T19:37:25.648Z,19.70
2022-10-16T19:39:53.516Z,19.70
2022-10-16T19:42:22.841Z,19.70
2022-10-16T19:44:50.793Z,19.70
2022-10-16T19:47:20.870Z,19.70
2022-10-16T19:49:52.519Z,19.70
2022-10-16T19:52:22.166Z,19.70
2022-10-16T19:54:51.730Z,19.70
2022-10-16T19:57:19.654Z,19.70
2022-10-16T19:59:52.507Z,19.70
2022-10-16T20:02:20.455Z,19.70
2022-10-16T20:04:48.403Z,19.70
2022-10-16T20:07:16.455Z,19.70
2022-10-16T20:09:44.316Z,19.70
2022-10-16T20:12:12.254Z,19.70
2022-10-16T20:14:40.291Z,19.70
2022-10-16T20:17:09.600Z,19.70
2022-10-16T20:19:39.524Z,19.70
2022-10-16T20:22:07.600Z,19.70
2022-10-16T20:24:35.521Z,19.70
2022-10-16T20:27:03.481Z,19.70
2022-10-16T20:29:31.376Z,19.70
2022-10-16T20:31:59.323Z,19.70
2022-10-16T20:34:28.788Z,19.70
2022-10-16T20:36:56.673Z,19.70
2022-10-16T20:39:24.539Z,19.70
2022-10-16T20:41:52.417Z,19.70
2022-10-16T20:44:20.295Z,19.70
2022-10-16T20:46:48.261Z,19.70
2022-10-16T20:49:39.322Z,19.60
2022-10-16T20:52:05.524Z,19.70
2022-10-16T20:54:33.378Z,19.70
2022-10-16T20:57:01.237Z,19.70
2022-10-16T20:59:29.099Z,19.70
2022-10-16T21:01:57.153Z,19.70
2022-10-16T21:04:25.143Z,19.80
2022-10-16T21:06:53.066Z,19.70
2022-10-16T21:09:22.375Z,19.80
2022-10-16T21:11:50.249Z,19.70
2022-10-16T21:14:18.196Z,19.80
2022-10-16T21:16:46.060Z,19.70
2022-10-16T21:19:14.765Z,19.80
2022-10-16T21:21:42.665Z,19.70
2022-10-16T21:24:13.472Z,19.80
2022-10-16T21:26:45.764Z,19.80
2022-10-16T21:29:13.673Z,19.80
2022-10-16T21:31:41.591Z,19.80
2022-10-16T21:34:09.473Z,19.80
2022-10-16T21:36:38.359Z,19.80
2022-10-16T21:39:07.419Z,19.80
2022-10-16T21:41:35.654Z,19.80
2022-10-16T21:44:05.443Z,19.80
2022-10-16T21:46:34.106Z,19.80
2022-10-16T21:49:02.800Z,19.80
2022-10-16T21:51:32.420Z,19.80
2022-10-16T21:54:00.342Z,19.80
2022-10-16T21:56:28.260Z,19.80
2022-10-16T21:58:56.105Z,19.80
2022-10-16T22:01:25.942Z,19.80
2022-10-16T22:03:54.609Z,19.80
2022-10-16T22:06:23.396Z,19.80
2022-10-16T22:08:51.971Z,19.80
2022-10-16T22:11:22.369Z,19.80
2022-10-16T22:13:54.108Z,19.80
2022-10-16T22:16:26.476Z,19.80
2022-10-16T22:18:54.693Z,19.80
2022-10-16T22:21:22.659Z,19.80
2022-10-16T22:23:50.525Z,19.80
2022-10-16T22:26:18.376Z,19.80
2022-10-16T22:28:46.313Z,19.80
2022-10-16T22:31:14.902Z,19.80
2022-10-16T22:33:44.151Z,19.80
2022-10-16T22:36:13.525Z,19.80
2022-10-16T22:38:41.625Z,19.80
2022-10-16T22:41:10.110Z,19.80
2022-10-16T22:43:38.211Z,19.80
2022-10-16T22:46:07.558Z,19.80
2022-10-16T22:48:35.692Z,19.80
2022-10-16T22:51:05.061Z,19.70
2022-10-16T22:53:32.935Z,19.70
2022-10-16T22:56:00.912Z,19.80
2022-10-16T22:58:28.788Z,19.80
2022-10-16T23:03:25.636Z,19.70
2022-10-16T23:05:53.556Z,19.80
2022-10-16T23:08:22.778Z,19.70
2022-10-16T23:10:50.690Z,19.70
2022-10-16T23:13:18.546Z,19.70
2022-10-16T23:15:46.504Z,19.80
2022-10-16T23:18:14.361Z,19.70
2022-10-16T23:20:42.426Z,19.70
2022-10-16T23:23:10.346Z,19.70
2022-10-16T23:25:48.163Z,19.70
2022-10-16T23:30:48.809Z,19.70
2022-10-16T23:33:16.667Z,19.70
2022-10-16T23:35:44.566Z,19.70
2022-10-16T23:38:12.415Z,19.70
2022-10-16T23:40:41.682Z,19.70
2022-10-16T23:43:09.532Z,19.70
2022-10-16T23:45:37.406Z,19.70
2022-10-16T23:48:05.337Z,19.70
2022-10-16T23:50:33.208Z,19.70
2022-10-16T23:53:03.357Z,19.70
2022-10-16T23:55:34.376Z,19.70
2022-10-16T23:58:03.727Z,19.70
